Latest Weather Observations for Camden

IDN60801

Issued at 7:53 am EDT Saturday 16 October 2021 (issued every 10 minutes, with the page automatically refreshed every 10 minutes)

About weather observations | Map of weather stations | Latest weather observations for NSW | Other Formats
Station Details ID: 068192 Name: CAMDEN AIRPORT AWS Lat: -34.04 Lon: 150.69 Height: 73.9 m
Data from the previous 72 hours. | See also: Recent months at Camden
Date/Time
EDT
Temp
°C
App
Temp
°C
Dew
Point
°C
Rel
Hum
%
Delta-T
°C
Wind Press
QNH
hPa
Press
MSL
hPa
Rain since
9am
mm
Dir  Spd
km/h
Gust
km/h
Spd
kts
Gust
kts
16/07:30am 14.5 9.0 5.8 56 4.2 WSW 24 35 13 19 1002.3 1002.1 1.0
16/07:00am 12.1 10.9 6.6 69 2.6 WNW 2 9 1 5 1001.9 1001.7 1.0
16/06:30am 11.2 8.6 6.1 71 2.4 SE 9 11 5 6 1001.8 1001.6 1.0
16/06:00am 12.2 10.8 5.6 64 3.1 W 2 9 1 5 1001.2 1001.1 1.0
16/05:30am 12.0 9.5 6.5 69 2.6 W 9 19 5 10 1001.1 1001.0 1.0
16/05:00am 9.7 7.9 7.3 85 1.1 NW 6 13 3 7 1001.0 1000.9 1.0
16/04:30am 8.4 7.3 6.7 89 0.8 WNW 2 7 1 4 1001.3 1001.2 1.0
16/04:00am 8.1 5.7 6.9 92 0.6 NNE 9 11 5 6 1001.2 1001.1 1.0
16/03:30am 8.1 7.4 6.9 92 0.6 CALM 0 6 0 3 1001.6 1001.4 1.0
16/03:00am 7.7 6.6 6.8 94 0.4 NE 2 9 1 5 1001.7 1001.5 1.0
16/02:30am 7.6 6.8 6.5 93 0.5 CALM 0 0 0 0 1001.9 1001.7 1.0
16/02:00am 7.7 5.7 6.2 90 0.7 N 6 9 3 5 1002.1 1001.9 1.0
16/01:30am 8.4 6.2 5.2 80 1.4 NE 6 7 3 4 1002.4 1002.2 1.0
16/01:00am 8.9 7.2 6.0 82 1.3 NNE 4 9 2 5 1002.7 1002.5 1.0
16/12:30am 10.1 9.0 6.8 80 1.6 N 2 7 1 4 1002.8 1002.6 1.0
16/12:00am 9.7 7.3 6.8 82 1.4 NW 9 11 5 6 1003.2 1003.0 1.0
 
Date/Time
EDT
Temp
°C
App
Temp
°C
Dew
Point
°C
Rel
Hum
%
Delta-T
°C
Wind Press
QNH
hPa
Press
MSL
hPa
Rain since
9am
mm
Dir  Spd
km/h
Gust
km/h
Spd
kts
Gust
kts
15/11:30pm 11.2 8.7 6.7 74 2.1 N 9 13 5 7 1003.4 1003.2 1.0
15/11:00pm 10.7 7.8 6.6 76 1.9 NNW 11 15 6 8 1003.7 1003.5 1.0
15/10:30pm 10.7 7.6 7.4 80 1.6 NNW 13 15 7 8 1003.5 1003.3 1.0
15/10:00pm 11.1 8.9 8.0 81 1.5 N 9 11 5 6 1003.6 1003.4 1.0
15/09:30pm 10.6 7.9 7.3 80 1.6 N 11 13 6 7 1003.8 1003.6 1.0
15/09:00pm 11.6 9.3 7.5 76 2.0 NNW 9 11 5 6 1003.4 1003.2 1.0
15/08:30pm 11.7 8.9 8.6 81 1.5 NNW 13 15 7 8 1003.0 1002.8 1.0
15/08:00pm 12.7 9.9 8.4 75 2.2 NNW 13 17 7 9 1003.0 1002.8 1.0
15/07:30pm 13.5 10.3 8.6 72 2.5 NNW 15 20 8 11 1002.6 1002.4 1.0
15/07:00pm 13.0 11.1 10.5 85 1.3 N 11 15 6 8 1002.0 1001.8 1.0
15/06:30pm 14.1 9.4 7.9 66 3.1 NW 22 35 12 19 1001.7 1001.5 1.0
15/06:00pm 17.1 13.0 6.0 48 5.5 NW 17 22 9 12 1001.0 1000.9 0.4
15/05:30pm 18.4 13.9 5.9 44 6.2 NW 19 28 10 15 1000.2 1000.1 0.4
15/05:00pm 18.6 13.1 6.1 44 6.2 NW 24 33 13 18 999.9 999.8 0.4
15/04:30pm 18.8 14.2 6.6 45 6.1 WNW 20 32 11 17 999.7 999.6 0.4
15/04:00pm 18.1 14.4 7.8 51 5.3 W 17 28 9 15 1000.4 1000.3 0.4
15/03:30pm 17.6 10.5 5.5 45 5.9 WNW 32 46 17 25 1000.2 1000.1 0.4
15/03:18pm 18.8 12.6 6.0 43 6.3 WNW 28 46 15 25 999.8 999.7 0.4
15/03:00pm 18.1 10.9 5.0 42 6.4 WNW 32 48 17 26 999.6 999.5 0.4
15/02:56pm 18.8 12.0 4.9 40 6.7 WNW 30 48 16 26 999.6 999.5 0.4
15/02:30pm 18.3 11.6 5.5 43 6.2 NW 30 43 16 23 1000.1 1000.0 0.4
15/02:00pm 17.0 10.7 5.6 47 5.6 NW 28 41 15 22 1000.5 1000.4 0.4
15/01:30pm 17.5 10.8 5.8 46 5.7 NW 30 43 16 23 1000.3 1000.2 0.4
15/01:13pm 18.1 11.1 4.3 40 6.6 NW 30 54 16 29 1000.0 999.9 0.4
15/01:00pm 17.9 11.5 7.0 49 5.5 NW 30 41 16 22 999.8 999.7 0.4
15/12:54pm 17.5 10.0 6.4 48 5.5 NNW 35 52 19 28 999.7 999.6 0.4
15/12:49pm 17.8 10.7 5.7 45 5.9 NW 32 52 17 28 999.4 999.3 0.4
15/12:30pm 19.9 14.3 5.5 39 7.1 NW 24 35 13 19 999.2 999.1 0.4
15/12:00pm 21.1 15.5 5.5 36 7.8 WNW 24 39 13 21 999.5 999.4 0.4
15/11:30am 19.7 16.0 6.4 42 6.7 NNW 15 22 8 12 1000.3 1000.2 0.4
15/11:00am 17.8 15.2 6.3 47 5.7 NNW 9 20 5 11 1001.3 1001.2 0.4
15/10:30am 16.5 14.1 8.7 60 4.0 N 11 17 6 9 1002.3 1002.1 0.4
15/10:00am 13.9 12.5 8.9 72 2.6 NW 6 11 3 6 1002.8 1002.6 0.4
15/09:30am 13.7 8.9 5.6 58 3.8 NW 20 28 11 15 1003.7 1003.5 0.0
15/09:00am 16.1 12.1 5.1 48 5.3 W 15 33 8 18 1003.9 1003.7 0.4
15/08:30am 16.2 11.5 6.1 51 4.9 WSW 20 33 11 18 1003.5 1003.3 0.4
15/08:00am 15.7 12.7 6.2 53 4.6 SW 11 24 6 13 1002.8 1002.6 0.4
15/07:30am 14.2 12.2 7.3 63 3.4 SW 7 11 4 6 1003.0 1002.8 0.4
15/07:00am 12.8 10.6 7.7 71 2.5 WSW 9 11 5 6 1003.0 1002.8 0.4
15/06:30am 12.6 9.6 7.5 71 2.5 SSW 13 19 7 10 1002.8 1002.6 0.4
15/06:00am 13.0 10.0 7.9 71 2.5 SSW 13 24 7 13 1002.8 1002.6 0.4
15/05:30am 13.6 10.1 8.7 72 2.5 SW 17 22 9 12 1003.1 1002.9 0.4
15/05:00am 13.9 10.5 9.1 73 2.5 SSW 17 24 9 13 1002.7 1002.5 0.4
15/04:30am 14.9 11.9 12.0 83 1.6 SW 19 28 10 15 1002.3 1002.1 0.4
15/04:09am 15.0 13.7 14.7 98 0.2 SW 15 19 8 10 1002.3 1002.1 0.4
15/04:00am 15.2 14.4 15.0 99 0.1 WSW 13 19 7 10 1002.5 1002.3 0.4
15/03:56am 15.2 14.0 15.0 99 0.1 WSW 15 20 8 11 1002.5 1002.3 0.4
15/03:30am 15.8 17.3 15.8 100 0.0 WSW 2 13 1 7 1002.2 1002.0 0.4
15/03:00am 15.9 17.9 15.9 100 0.0 CALM 0 0 0 0 1001.5 1001.3 0.4
15/02:30am 15.9 17.9 15.9 100 0.0 CALM 0 0 0 0 1001.5 1001.3 0.4
15/02:00am 15.7 17.6 15.7 100 0.0 CALM 0 0 0 0 1001.7 1001.5 0.4
15/01:36am 15.6 17.4 15.6 100 0.0 CALM 0 0 0 0 1002.1 1001.9 0.4
15/01:33am 15.5 17.3 15.5 100 0.0 CALM 0 0 0 0 1002.0 1001.8 0.4
15/01:30am 15.5 17.2 15.3 99 0.1 CALM 0 0 0 0 1002.1 1001.9 0.4
15/01:07am 15.0 16.6 14.8 99 0.1 CALM 0 0 0 0 1002.5 1002.3 0.4
15/01:00am 15.0 16.6 14.8 99 0.1 CALM 0 0 0 0 1002.4 1002.2 0.4
15/12:54am 14.8 16.3 14.6 99 0.1 CALM 0 0 0 0 1002.6 1002.4 0.4
15/12:30am 15.1 16.7 14.9 99 0.1 CALM 0 0 0 0 1003.0 1002.8 0.4
15/12:26am 15.3 17.0 15.1 99 0.1 CALM 0 0 0 0 1003.0 1002.8 0.4
15/12:00am 15.0 16.6 14.8 99 0.1 CALM 0 0 0 0 1003.4 1003.2 0.4
 
Date/Time
EDT
Temp
°C
App
Temp
°C
Dew
Point
°C
Rel
Hum
%
Delta-T
°C
Wind Press
QNH
hPa
Press
MSL
hPa
Rain since
9am
mm
Dir  Spd
km/h
Gust
km/h
Spd
kts
Gust
kts
14/11:30pm 15.2 16.8 15.0 99 0.1 CALM 0 0 0 0 1003.2 1003.0 0.4
14/11:15pm 15.9 17.8 15.7 99 0.1 CALM 0 0 0 0 1003.2 1003.0 0.4
14/11:10pm 16.0 17.9 15.8 99 0.1 CALM 0 0 0 0 1003.2 1003.0 0.4
14/11:03pm 15.9 17.8 15.7 99 0.1 CALM 0 0 0 0 1003.3 1003.1 0.4
14/11:00pm 16.7 18.9 16.5 99 0.1 CALM 0 0 0 0 1003.3 1003.1 0.4
14/10:39pm 16.9 19.2 16.7 99 0.1 CALM 0 0 0 0 1003.3 1003.1 0.4
14/10:30pm 16.9 19.2 16.7 99 0.1 CALM 0 0 0 0 1003.4 1003.2 0.4
14/10:22pm 16.1 18.1 15.9 99 0.1 CALM 0 0 0 0 1003.5 1003.3 0.4
14/10:02pm 16.8 18.7 16.6 99 0.1 SSW 2 9 1 5 1003.8 1003.6 0.4
14/10:00pm 16.6 18.0 16.4 99 0.1 SSW 4 9 2 5 1003.7 1003.5 0.4
14/09:30pm 16.5 18.3 15.4 93 0.6 CALM 0 0 0 0 1003.5 1003.3 0.4
14/09:26pm 17.0 19.1 16.2 95 0.5 CALM 0 0 0 0 1003.5 1003.3 0.4
14/09:05pm 17.9 20.3 16.9 94 0.6 CALM 0 0 0 0 1003.6 1003.4 0.4
14/09:00pm 17.9 20.2 16.8 93 0.7 CALM 0 0 0 0 1003.6 1003.4 0.4
14/08:30pm 18.5 20.8 16.8 90 1.0 CALM 0 0 0 0 1003.4 1003.2 0.4
14/08:00pm 18.8 20.0 16.8 88 1.2 E 6 9 3 5 1003.6 1003.4 0.4
14/07:30pm 18.8 20.2 16.4 86 1.4 NNE 4 7 2 4 1003.5 1003.3 0.4
14/07:28pm 18.8 19.7 16.2 85 1.6 NE 6 11 3 6 1003.5 1003.3 0.4
14/07:00pm 19.4 19.3 16.1 81 2.0 NE 11 20 6 11 1003.0 1002.8 0.4
14/06:30pm 19.9 18.7 15.1 74 2.8 ENE 15 26 8 14 1002.7 1002.5 0.4
14/06:14pm 20.7 19.4 15.9 74 2.9 ENE 17 33 9 18 1002.8 1002.6 0.4
14/06:00pm 21.2 19.9 15.7 71 3.3 ENE 17 24 9 13 1002.5 1002.3 0.4
14/05:30pm 21.5 20.8 17.3 77 2.6 NE 17 28 9 15 1002.4 1002.2 0.4
14/05:00pm 21.8 21.0 17.0 74 3.0 ENE 17 26 9 14 1002.5 1002.3 0.4
14/04:30pm 21.0 20.3 16.4 75 2.8 E 15 22 8 12 1002.8 1002.6 0.4
14/04:00pm 21.2 19.4 15.5 70 3.4 NE 19 26 10 14 1002.8 1002.6 0.4
14/03:34pm 21.7 21.1 18.5 82 2.0 NE 19 26 10 14 1002.8 1002.6 0.4
14/03:30pm 22.0 21.6 18.8 82 2.0 NE 19 26 10 14 1002.8 1002.6 0.4
14/03:04pm 22.8 22.9 15.6 64 4.3 NNE 9 13 5 7 1003.6 1003.4 0.0
14/03:00pm 22.8 22.6 15.6 64 4.4 N 11 17 6 9 1003.7 1003.5 0.0
14/02:30pm 22.6 21.4 13.9 58 5.1 NNE 13 20 7 11 1004.0 1003.8 0.0
14/02:00pm 23.0 21.3 14.6 59 5.0 NNE 17 28 9 15 1004.3 1004.1 0.0
14/01:30pm 23.2 22.2 14.7 58 5.0 NE 13 28 7 15 1005.2 1005.0 0.0
14/01:00pm 21.7 21.9 14.8 65 4.1 ESE 7 20 4 11 1006.4 1006.2 0.0
14/12:30pm 20.5 19.8 13.2 63 4.2 ENE 9 13 5 7 1007.2 1007.0 0.0
14/12:00pm 19.9 20.3 13.6 67 3.6 ENE 4 11 2 6 1007.6 1007.5 0.0
14/11:30am 18.2 17.9 13.3 73 2.8 SW 7 9 4 5 1008.3 1008.2 0.0
14/11:22am 17.9 17.8 13.2 74 2.7 W 6 11 3 6 1008.7 1008.6 0.0
14/11:06am 18.1 19.1 13.2 73 2.8 CALM 0 0 0 0 1008.7 1008.6 0.0
14/11:01am 18.1 19.2 13.4 74 2.7 CALM 0 0 0 0 1008.7 1008.6 0.0
14/11:00am 18.1 19.2 13.4 74 2.7 CALM 0 0 0 0 1008.6 1008.5 0.0
14/10:51am 17.7 17.8 12.8 73 2.7 NNE 4 9 2 5 1008.8 1008.7 0.0
14/10:30am 18.0 17.4 13.5 75 2.6 N 9 13 5 7 1009.3 1009.2 0.0
14/10:00am 18.6 17.9 13.2 71 3.1 ENE 9 15 5 8 1009.2 1009.1 0.0
14/09:50am 18.2 17.0 12.9 71 3.0 NNE 11 19 6 10 1009.2 1009.1 0.0
14/09:33am 17.7 16.6 13.2 75 2.5 NE 11 17 6 9 1009.3 1009.2 0.0
14/09:30am 17.6 16.6 13.5 77 2.3 NE 11 17 6 9 1009.4 1009.3 0.0
14/09:00am 17.1 15.7 13.4 79 2.1 NE 13 17 7 9 1009.7 1009.6 12.4
14/08:30am 16.8 17.3 13.9 83 1.6 ENE 4 9 2 5 1009.6 1009.5 12.4
14/08:00am 16.0 17.7 15.2 95 0.5 CALM 0 0 0 0 1009.6 1009.5 12.4
14/07:30am 14.9 16.4 14.7 99 0.1 CALM 0 0 0 0 1009.6 1009.5 12.4
14/07:00am 14.5 15.9 14.3 99 0.1 CALM 0 0 0 0 1009.4 1009.3 12.4
14/06:30am 14.5 15.9 14.3 99 0.1 CALM 0 0 0 0 1009.2 1009.1 12.4
14/06:00am 14.4 15.7 14.2 99 0.1 CALM 0 0 0 0 1008.8 1008.7 12.4
14/05:30am 14.4 15.4 14.2 99 0.1 ESE 2 7 1 4 1008.9 1008.8 12.4
14/05:00am 14.3 15.6 14.1 99 0.1 CALM 0 0 0 0 1008.8 1008.7 12.4
14/04:30am 14.4 15.7 14.1 98 0.2 CALM 0 0 0 0 1009.0 1008.9 12.4
14/04:00am 14.5 15.8 14.2 98 0.2 CALM 0 0 0 0 1009.2 1009.1 12.4
14/03:30am 14.6 14.2 14.0 96 0.3 NNE 9 13 5 7 1009.1 1009.0 12.4
14/03:25am 14.7 14.2 13.9 95 0.5 NNE 9 13 5 7 1009.2 1009.1 12.4
14/03:02am 14.9 14.9 14.1 95 0.5 NE 7 11 4 6 1009.8 1009.7 12.4
14/03:00am 14.6 14.5 14.0 96 0.3 ENE 7 9 4 5 1009.7 1009.6 12.4
14/02:30am 14.8 16.1 14.2 96 0.3 CALM 0 4 0 2 1010.4 1010.3 12.4
14/02:10am 14.8 14.8 13.7 93 0.6 ENE 6 7 3 4 1010.5 1010.4 12.4
14/02:00am 14.9 14.8 13.4 91 0.8 ESE 6 11 3 6 1010.6 1010.5 12.4
14/01:57am 15.0 15.0 13.5 91 0.8 E 6 11 3 6 1010.6 1010.5 12.4
14/01:30am 15.3 16.3 13.2 87 1.2 CALM 0 0 0 0 1011.2 1011.1 11.2
14/01:00am 15.5 15.4 13.3 87 1.2 NNE 6 7 3 4 1011.8 1011.7 11.2
14/12:30am 15.8 15.6 13.1 84 1.5 NNE 6 11 3 6 1012.1 1012.0 11.2
14/12:00am 15.8 15.4 13.1 84 1.5 NNE 7 13 4 7 1012.2 1012.1 11.2
 
Date/Time
EDT
Temp
°C
App
Temp
°C
Dew
Point
°C
Rel
Hum
%
Delta-T
°C
Wind Press
QNH
hPa
Press
MSL
hPa
Rain since
9am
mm
Dir  Spd
km/h
Gust
km/h
Spd
kts
Gust
kts
13/11:30pm 15.3 14.2 13.2 87 1.2 NE 11 17 6 9 1012.3 1012.2 11.2
13/11:00pm 15.4 15.3 13.2 87 1.2 NNE 6 9 3 5 1012.8 1012.7 11.2
13/10:30pm 15.8 15.1 13.1 84 1.5 NNE 9 11 5 6 1012.9 1012.8 11.2
13/10:00pm 15.8 14.6 12.9 83 1.6 NE 11 17 6 9 1012.8 1012.7 11.2
13/09:30pm 15.7 15.3 13.0 84 1.5 NE 7 11 4 6 1013.0 1012.9 11.2
13/09:00pm 15.9 15.2 13.2 84 1.5 ENE 9 13 5 7 1013.2 1013.1 11.2
13/08:30pm 15.9 15.3 13.4 85 1.4 ENE 9 17 5 9 1013.0 1012.9 11.2
13/08:00pm 15.7 15.2 13.7 88 1.1 ENE 9 15 5 8 1013.0 1012.9 11.2
13/07:30pm 15.7 15.7 14.1 90 0.9 ENE 7 11 4 6 1012.6 1012.5 11.2
13/07:00pm 15.7 15.8 14.4 92 0.7 ENE 7 11 4 6 1012.6 1012.5 11.2
13/06:30pm 15.8 16.2 14.8 94 0.6 E 6 11 3 6 1012.4 1012.3 11.2
13/06:00pm 15.9 16.4 14.9 94 0.6 NNE 6 9 3 5 1012.7 1012.6 11.2
13/05:49pm 15.9 16.2 14.9 94 0.6 NNE 7 11 4 6 1012.5 1012.4 11.2
13/05:30pm 15.9 16.4 15.1 95 0.5 NE 6 9 3 5 1012.5 1012.4 11.2
13/05:07pm 16.2 16.8 15.7 97 0.3 NE 7 9 4 5 1012.4 1012.3 11.2
13/05:02pm 15.8 15.9 15.5 98 0.2 NE 9 11 5 6 1012.4 1012.3 11.2
13/05:00pm 15.9 16.4 15.6 98 0.2 NE 7 11 4 6 1012.4 1012.3 11.2
13/04:32pm 15.6 15.6 15.3 98 0.2 NNW 9 11 5 6 1012.6 1012.5 11.0
13/04:30pm 15.6 16.0 15.3 98 0.2 NW 7 11 4 6 1012.6 1012.5 11.0
13/04:27pm 15.8 16.3 15.6 99 0.1 NW 7 11 4 6 1012.6 1012.5 11.0
13/04:16pm 15.7 15.7 15.2 97 0.3 NNW 9 11 5 6 1012.7 1012.6 10.8
13/04:00pm 15.9 16.1 15.7 99 0.1 NNW 9 13 5 7 1012.8 1012.7 10.8
13/03:50pm 15.6 15.7 15.4 99 0.1 NW 9 13 5 7 1012.9 1012.8 10.8
13/03:30pm 15.6 16.0 15.3 98 0.2 NW 7 9 4 5 1012.9 1012.8 10.8
13/03:25pm 15.3 15.2 15.0 98 0.2 WNW 9 9 5 5 1012.9 1012.8 10.6
13/03:23pm 15.3 15.6 15.0 98 0.2 WNW 7 9 4 5 1012.9 1012.8 10.6
13/03:10pm 15.5 16.1 15.2 98 0.2 W 6 9 3 5 1013.0 1012.9 10.4
13/03:00pm 15.3 15.6 15.1 99 0.1 W 7 9 4 5 1013.1 1013.0 10.4
13/02:43pm 15.3 15.8 15.1 99 0.1 NW 6 9 3 5 1013.3 1013.2 10.4
13/02:30pm 15.3 16.2 15.1 99 0.1 N 4 7 2 4 1013.5 1013.4 10.4
13/02:00pm 14.7 14.8 14.5 99 0.1 NNW 7 9 4 5 1013.8 1013.7 8.6
13/01:30pm 15.0 14.8 14.8 99 0.1 NNE 9 17 5 9 1014.3 1014.2 5.2
13/01:18pm 15.3 14.5 15.1 99 0.1 NE 13 19 7 10 1014.3 1014.2 5.2
13/01:14pm 15.2 14.4 15.0 99 0.1 NE 13 19 7 10 1014.4 1014.3 5.2
13/01:00pm 14.7 14.1 14.5 99 0.1 ENE 11 20 6 11 1014.5 1014.4 5.2
13/12:30pm 14.7 14.4 14.5 99 0.1 E 9 19 5 10 1014.9 1014.8 4.6
13/12:00pm 14.5 14.5 14.3 99 0.1 ESE 7 11 4 6 1015.3 1015.2 4.0
13/11:30am 14.0 13.9 13.8 99 0.1 S 7 13 4 7 1016.1 1015.9 3.2
13/11:00am 13.4 12.3 13.2 99 0.1 SSE 11 15 6 8 1016.5 1016.3 1.6
13/10:30am 13.3 12.8 12.8 97 0.3 S 7 11 4 6 1016.9 1016.7 0.8
13/10:12am 13.1 12.5 12.3 95 0.4 S 7 9 4 5 1017.1 1016.9 0.6
13/10:00am 13.0 13.2 11.7 92 0.7 SE 2 7 1 4 1017.2 1017.0 0.4
13/09:57am 13.1 12.9 11.8 92 0.7 ESE 4 7 2 4 1017.2 1017.0 0.4
13/09:30am 13.5 13.8 11.0 85 1.3 CALM 0 4 0 2 1017.4 1017.2 0.2
13/09:22am 13.3 12.7 10.3 82 1.6 NNE 4 9 2 5 1017.5 1017.3 0.0
13/09:18am 13.4 12.4 10.2 81 1.7 NNE 6 9 3 5 1017.5 1017.3 0.0
13/09:00am 14.2 13.4 9.8 75 2.3 NW 4 7 2 4 1017.3 1017.1 7.4
13/08:30am 13.9 13.0 10.5 80 1.8 NW 6 7 3 4 1017.3 1017.1 7.4
13/08:00am 13.3 13.7 11.4 88 1.0 CALM 0 0 0 0 1017.3 1017.1 7.4

Other formats

Comma delimited format used in spreadsheet applications
http://www.bom.gov.au/fwo/IDN60801/IDN60801.94755.axf

JavaScript Object Notation format (JSON) in row-major order
http://www.bom.gov.au/fwo/IDN60801/IDN60801.94755.json

Data quality

Most of these data are generated automatically and are frequently updated. Quality checks on data are not normally performed. It is possible for incorrect values to appear. Refer to information at About Latest Weather Observations and please check the disclaimer before using these data.